Time;durP1;ratioP1;P1;durP2;ratioP2;P2;SDS_P1;SDS_P2;PMS_P1;PMS_P2;Temp;Humidity;BMP_temperature;BMP_pressure;BME280_temperature;BME280_humidity;BME280_pressure;Samples;Min_cycle;Max_cycle;Signal;HPM_P1;HPM_P2
2021/10/11 00:01:11;;;;;;;13.72;6.78;;;;;;;17.29;34.75;101496.27;1671051;83;20933;-68
2021/10/11 00:03:38;;;;;;;16.90;6.97;;;;;;;17.44;34.72;101503.00;1696865;83;21051;-70
2021/10/11 00:06:05;;;;;;;13.05;7.00;;;;;;;17.46;34.69;101497.05;1694087;83;21035;-68
2021/10/11 00:08:32;;;;;;;13.10;6.75;;;;;;;17.57;34.60;101503.55;1685784;84;20988;-68
2021/10/11 00:11:00;;;;;;;10.90;6.47;;;;;;;17.49;34.70;101503.72;1687960;83;21010;-69
2021/10/11 00:13:27;;;;;;;12.35;6.50;;;;;;;17.57;34.62;101500.91;1688371;83;21581;-68
2021/10/11 00:15:54;;;;;;;12.47;7.20;;;;;;;17.64;34.54;101497.78;1683350;83;21009;-69
2021/10/11 00:18:22;;;;;;;14.45;7.05;;;;;;;17.59;34.69;101495.45;1696850;83;21100;-69
2021/10/11 00:20:48;;;;;;;11.25;6.22;;;;;;;17.82;34.44;101492.48;1681598;83;20928;-69
2021/10/11 00:23:17;;;;;;;12.43;6.55;;;;;;;18.08;34.06;101488.56;1691544;83;21020;-69
2021/10/11 00:25:45;;;;;;;9.83;6.10;;;;;;;18.00;34.16;101488.76;1691984;83;21561;-69
2021/10/11 00:28:11;;;;;;;12.07;7.42;;;;;;;18.08;34.03;101495.16;1684764;83;21486;-68
2021/10/11 00:30:38;;;;;;;16.75;6.97;;;;;;;18.16;33.90;101488.35;1675682;83;20935;-68
2021/10/11 00:33:05;;;;;;;12.18;6.45;;;;;;;18.09;34.01;101486.22;1667833;84;21576;-68
2021/10/11 00:35:33;;;;;;;13.93;6.42;;;;;;;18.16;33.93;101479.62;1687155;84;21153;-68
2021/10/11 00:37:59;;;;;;;12.73;6.12;;;;;;;18.28;33.77;101475.87;1687129;83;21087;-68
2021/10/11 00:40:26;;;;;;;13.45;6.58;;;;;;;18.27;33.74;101475.57;1691148;83;21059;-68
2021/10/11 00:42:53;;;;;;;11.25;6.42;;;;;;;18.38;33.54;101472.31;1685910;83;21435;-68
2021/10/11 00:45:19;;;;;;;11.80;6.90;;;;;;;18.35;33.53;101472.72;1692667;84;20929;-69
2021/10/11 00:47:46;;;;;;;12.43;6.87;;;;;;;18.18;33.72;101466.55;1671779;84;21167;-69
2021/10/11 00:50:13;;;;;;;14.07;6.50;;;;;;;18.23;33.81;101465.41;1668142;82;21007;-68
2021/10/11 00:52:39;;;;;;;13.68;6.62;;;;;;;18.35;33.57;101460.84;1672502;83;22648;-68
2021/10/11 00:55:07;;;;;;;13.83;7.30;;;;;;;18.20;33.67;101463.17;1660502;84;21009;-68
2021/10/11 00:57:34;;;;;;;11.85;6.53;;;;;;;17.59;34.36;101469.89;1668378;83;21065;-69
2021/10/11 01:00:00;;;;;;;13.30;6.60;;;;;;;17.54;34.58;101461.78;1696111;83;21167;-68
2021/10/11 01:02:28;;;;;;;12.10;6.45;;;;;;;17.45;34.66;101461.13;1696597;83;21114;-65
2021/10/11 01:04:54;;;;;;;17.00;6.05;;;;;;;17.42;34.74;101468.62;1685940;83;20981;-68
2021/10/11 01:07:21;;;;;;;12.50;6.58;;;;;;;17.37;34.81;101467.91;1669854;83;21004;-68
2021/10/11 01:09:47;;;;;;;13.10;6.95;;;;;;;17.53;34.60;101468.04;1669890;83;21608;-68
2021/10/11 01:12:13;;;;;;;12.88;6.10;;;;;;;17.58;34.58;101467.44;1668038;84;21391;-68
2021/10/11 01:14:40;;;;;;;12.47;7.00;;;;;;;17.49;34.64;101466.81;1674087;83;21111;-68
2021/10/11 01:17:07;;;;;;;15.00;6.97;;;;;;;17.47;34.63;101456.99;1679855;83;20989;-70
2021/10/11 01:19:37;;;;;;;10.32;6.62;;;;;;;17.45;34.59;101456.36;1633975;86;21544;-69
2021/10/11 01:22:03;;;;;;;11.50;6.55;;;;;;;17.54;34.50;101461.78;1680251;84;20952;-69
2021/10/11 01:24:30;;;;;;;10.98;6.42;;;;;;;17.15;35.00;101457.18;1660615;83;21236;-68
2021/10/11 01:26:56;;;;;;;11.53;6.60;;;;;;;17.24;34.95;101458.14;1688875;83;20996;-68
2021/10/11 01:29:23;;;;;;;11.22;6.65;;;;;;;17.64;34.47;101452.95;1695921;83;21009;-68
2021/10/11 01:31:49;;;;;;;10.85;6.60;;;;;;;17.73;34.30;101447.01;1689091;83;21080;-68
2021/10/11 01:34:16;;;;;;;11.88;6.70;;;;;;;17.82;34.06;101449.77;1663027;83;21019;-69
2021/10/11 01:36:42;;;;;;;13.40;7.05;;;;;;;17.71;34.17;101448.51;1690468;84;21157;-68
2021/10/11 01:39:09;;;;;;;11.63;7.40;;;;;;;17.66;34.23;101454.91;1692903;83;20996;-68
2021/10/11 01:41:38;;;;;;;13.03;7.05;;;;;;;17.67;34.27;101452.56;1693652;83;20957;-68
2021/10/11 01:44:06;;;;;;;12.85;6.85;;;;;;;17.63;34.24;101443.94;1677271;84;21798;-68
2021/10/11 01:46:33;;;;;;;11.10;6.50;;;;;;;17.56;34.35;101448.39;1695507;83;21585;-68
2021/10/11 01:49:00;;;;;;;12.65;6.80;;;;;;;17.75;34.14;101443.16;1673017;84;21173;-68
2021/10/11 01:51:26;;;;;;;12.07;6.33;;;;;;;17.68;34.21;101439.67;1680737;83;21533;-68
2021/10/11 01:53:54;;;;;;;16.57;7.20;;;;;;;17.71;34.14;101446.38;1697008;83;20933;-69
2021/10/11 01:56:20;;;;;;;14.70;6.35;;;;;;;17.73;34.06;101442.55;1690172;84;21585;-68
2021/10/11 01:58:47;;;;;;;10.10;6.58;;;;;;;17.86;33.93;101439.63;1682117;83;20998;-68
2021/10/11 02:01:13;;;;;;;11.75;6.35;;;;;;;17.86;33.88;101434.36;1669431;83;21167;-68
2021/10/11 02:03:40;;;;;;;10.85;6.30;;;;;;;17.73;33.98;101438.59;1680099;83;21012;-68
2021/10/11 02:06:07;;;;;;;13.35;6.55;;;;;;;17.92;33.76;101437.01;1693331;83;20952;-68
2021/10/11 02:08:34;;;;;;;12.05;6.00;;;;;;;18.07;33.56;101435.48;1681334;84;21008;-68
2021/10/11 02:11:00;;;;;;;10.58;6.05;;;;;;;17.81;33.84;101434.16;1697315;83;21444;-68
2021/10/11 02:13:26;;;;;;;13.70;5.80;;;;;;;17.83;33.91;101426.84;1681355;83;21087;-68
2021/10/11 02:15:53;;;;;;;15.80;7.00;;;;;;;17.86;33.84;101420.66;1697555;83;20988;-68
2021/10/11 02:18:20;;;;;;;10.88;6.65;;;;;;;17.70;33.92;101423.16;1680591;83;22097;-68
2021/10/11 02:20:46;;;;;;;12.45;5.97;;;;;;;17.63;34.04;101424.97;1689776;83;21019;-69
2021/10/11 02:23:13;;;;;;;16.85;6.90;;;;;;;17.70;33.98;101416.56;1648048;86;22391;-69
2021/10/11 02:25:40;;;;;;;11.78;6.72;;;;;;;17.69;33.99;101413.63;1633571;86;21165;-69
2021/10/11 02:28:06;;;;;;;10.48;6.40;;;;;;;17.77;33.92;101413.14;1640966;86;20906;-69
2021/10/11 02:30:34;;;;;;;10.90;5.90;;;;;;;17.74;33.87;101412.52;1688638;84;21062;-69
2021/10/11 02:33:00;;;;;;;12.50;6.83;;;;;;;17.76;33.86;101407.05;1681687;84;22233;-68
2021/10/11 02:35:27;;;;;;;9.85;6.05;;;;;;;17.76;33.89;101407.05;1692210;83;21035;-68
2021/10/11 02:37:53;;;;;;;13.15;7.12;;;;;;;17.66;34.06;101410.08;1689836;84;21174;-68
2021/10/11 02:40:20;;;;;;;12.13;6.40;;;;;;;17.66;34.02;101410.08;1696283;83;21087;-68
2021/10/11 02:42:47;;;;;;;12.20;6.60;;;;;;;17.57;34.14;101403.35;1691019;83;21464;-68
2021/10/11 02:45:14;;;;;;;14.50;6.75;;;;;;;17.79;33.83;101398.74;1695343;83;21107;-69
2021/10/11 02:47:40;;;;;;;11.97;6.28;;;;;;;17.66;34.04;101396.89;1695603;84;20940;-68
2021/10/11 02:50:08;;;;;;;12.28;6.40;;;;;;;17.71;33.89;101398.92;1696581;84;21179;-68
2021/10/11 02:52:36;;;;;;;13.55;7.05;;;;;;;17.76;33.89;101397.83;1687855;83;20940;-70
2021/10/11 02:55:04;;;;;;;12.05;6.45;;;;;;;17.69;33.87;101399.13;1699312;84;20909;-69
2021/10/11 02:57:31;;;;;;;14.03;7.10;;;;;;;17.81;33.85;101394.60;1692873;84;21280;-69
2021/10/11 02:59:57;;;;;;;12.98;6.97;;;;;;;17.86;33.72;101389.01;1700628;84;21048;-69
2021/10/11 03:02:24;;;;;;;12.37;7.10;;;;;;;17.56;34.14;101393.83;1719561;80;21138;-69
2021/10/11 03:04:50;;;;;;;21.75;7.37;;;;;;;17.50;34.29;101393.30;1719616;83;21028;-71
2021/10/11 03:07:18;;;;;;;12.40;6.50;;;;;;;17.74;34.01;101384.81;1719585;82;20957;-69
2021/10/11 03:09:45;;;;;;;12.63;6.30;;;;;;;17.88;33.75;101384.84;1724160;82;21059;-70
2021/10/11 03:12:12;;;;;;;11.55;5.58;;;;;;;17.80;33.83;101385.05;1724243;82;21493;-70
2021/10/11 03:14:38;;;;;;;10.53;6.05;;;;;;;17.87;33.68;101381.39;1717917;83;21150;-71
2021/10/11 03:17:05;;;;;;;17.45;6.58;;;;;;;17.75;33.73;101381.19;1722075;82;21518;-71
2021/10/11 03:19:33;;;;;;;11.60;6.30;;;;;;;17.58;34.02;101379.95;1721442;83;21078;-71
2021/10/11 03:21:59;;;;;;;12.23;6.58;;;;;;;17.74;33.82;101386.14;1723478;83;20984;-71
2021/10/11 03:24:26;;;;;;;11.57;5.83;;;;;;;17.90;33.55;101377.03;1718595;82;21125;-71
2021/10/11 03:26:53;;;;;;;14.43;7.42;;;;;;;17.97;33.44;101375.20;1717200;82;21074;-71
2021/10/11 03:29:19;;;;;;;14.60;6.72;;;;;;;17.69;33.75;101374.08;1719830;82;20994;-70
2021/10/11 03:31:46;;;;;;;14.90;6.80;;;;;;;17.64;33.79;101375.69;1695869;83;22169;-69
2021/10/11 03:34:12;;;;;;;14.13;7.45;;;;;;;17.78;33.67;101377.86;1704570;82;20905;-69
2021/10/11 03:36:39;;;;;;;14.65;7.83;;;;;;;17.87;33.57;101376.63;1716715;83;21048;-66
2021/10/11 03:39:08;;;;;;;18.50;8.70;;;;;;;17.88;33.58;101380.88;1718929;82;21320;-67
2021/10/11 03:41:34;;;;;;;22.00;9.05;;;;;;;17.86;33.64;101380.28;1717899;82;21096;-68
2021/10/11 03:44:03;;;;;;;18.60;7.97;;;;;;;17.75;33.73;101382.51;1721056;82;21597;-67
2021/10/11 03:46:30;;;;;;;18.75;9.65;;;;;;;17.60;34.02;101381.05;1711295;82;21557;-67
2021/10/11 03:48:57;;;;;;;17.02;8.63;;;;;;;17.81;33.87;101376.14;1702720;83;21510;-67
2021/10/11 03:51:24;;;;;;;15.30;7.67;;;;;;;17.79;33.85;101379.47;1712673;82;21075;-68
2021/10/11 03:53:50;;;;;;;15.88;8.55;;;;;;;17.79;33.91;101371.05;1721307;82;20945;-71
2021/10/11 03:56:17;;;;;;;15.40;8.25;;;;;;;17.60;34.15;101375.78;1708859;83;21098;-69
2021/10/11 03:58:43;;;;;;;15.38;7.53;;;;;;;17.44;34.45;101371.20;1701983;83;21478;-68
2021/10/11 04:01:10;;;;;;;12.70;8.05;;;;;;;17.47;34.38;101376.59;1709693;82;20990;-70
2021/10/11 04:03:36;;;;;;;15.58;7.62;;;;;;;17.46;34.58;101378.90;1717923;82;21150;-72
2021/10/11 04:06:03;;;;;;;15.95;8.08;;;;;;;17.65;34.29;101371.55;1721027;82;21264;-71
2021/10/11 04:08:37;;;;;;;20.65;7.85;;;;;;;17.62;34.23;101373.77;1720876;82;21573;-73
2021/10/11 04:13:42;;;;;;;13.40;8.20;;;;;;;17.58;34.19;101368.09;1657938;85;21282;-66
2021/10/11 04:16:09;;;;;;;16.57;8.38;;;;;;;17.65;34.10;101358.36;1661083;85;21974;-64
2021/10/11 04:18:36;;;;;;;21.87;10.40;;;;;;;17.67;34.16;101364.73;1718009;82;20935;-72
2021/10/11 04:21:02;;;;;;;15.75;7.87;;;;;;;17.54;34.24;101360.28;1723625;82;21479;-75
2021/10/11 04:23:29;;;;;;;13.83;7.25;;;;;;;17.67;34.14;101351.05;1725833;82;21493;-76
2021/10/11 04:25:56;;;;;;;12.85;7.05;;;;;;;17.38;34.56;101360.14;1719115;82;21069;-66
2021/10/11 04:28:23;;;;;;;10.90;6.70;;;;;;;17.39;34.70;101363.61;1723195;82;21869;-69
2021/10/11 04:30:50;;;;;;;12.10;7.15;;;;;;;17.29;34.71;101356.59;1689810;84;20873;-67
2021/10/11 04:33:16;;;;;;;25.25;8.20;;;;;;;17.11;35.10;101367.18;1666341;84;21131;-69
2021/10/11 04:35:45;;;;;;;23.32;9.80;;;;;;;17.35;34.82;101355.77;1670039;85;21046;-72
2021/10/11 04:38:12;;;;;;;20.23;10.20;;;;;;;17.43;34.62;101357.73;1716617;82;21078;-66
2021/10/11 04:40:39;;;;;;;23.67;12.23;;;;;;;17.39;34.73;101355.70;1720615;81;21815;-66
2021/10/11 04:43:05;;;;;;;23.12;12.05;;;;;;;17.41;34.69;101351.03;1727110;82;21690;-66
2021/10/11 04:45:33;;;;;;;20.15;11.45;;;;;;;17.55;34.56;101346.08;1719282;82;21051;-67
2021/10/11 04:48:06;;;;;;;23.52;10.90;;;;;;;17.64;34.43;101340.09;1718578;82;21668;-67
2021/10/11 04:50:33;;;;;;;21.77;10.45;;;;;;;17.69;34.28;101346.39;1721387;82;20952;-68
2021/10/11 04:53:04;;;;;;;17.73;8.95;;;;;;;17.75;34.12;101343.46;1719674;82;21866;-69
2021/10/11 04:55:30;;;;;;;15.05;8.40;;;;;;;17.78;34.15;101347.53;1725888;82;21047;-74
2021/10/11 04:57:58;;;;;;;17.02;8.83;;;;;;;17.73;34.18;101343.65;1727661;82;22345;-67
2021/10/11 05:00:25;;;;;;;17.50;9.23;;;;;;;17.73;34.25;101337.05;1726706;82;21533;-67
2021/10/11 05:02:51;;;;;;;17.73;8.18;;;;;;;17.78;34.29;101343.57;1698167;82;21142;-67
2021/10/11 05:05:18;;;;;;;14.45;7.55;;;;;;;17.82;34.16;101340.31;1688271;84;21797;-74
2021/10/11 05:07:45;;;;;;;15.08;7.92;;;;;;;18.03;33.89;101343.73;1669585;83;21409;-74
2021/10/11 05:10:12;;;;;;;18.73;8.03;;;;;;;18.03;33.91;101341.09;1683012;83;21026;-66
2021/10/11 05:12:39;;;;;;;15.30;8.00;;;;;;;18.20;33.64;101334.38;1674729;83;21512;-66
2021/10/11 05:15:06;;;;;;;21.30;8.88;;;;;;;18.18;33.58;101339.03;1692942;84;21049;-67
2021/10/11 05:17:33;;;;;;;19.90;9.30;;;;;;;18.22;33.55;101344.20;1680361;83;21754;-74
2021/10/11 05:20:01;;;;;;;14.80;8.20;;;;;;;18.15;33.68;101342.11;1682650;83;21059;-68
2021/10/11 05:22:29;;;;;;;13.70;7.87;;;;;;;18.26;33.54;101344.11;1693350;83;20988;-67
2021/10/11 05:24:56;;;;;;;15.98;8.60;;;;;;;18.20;33.50;101351.02;1670674;84;21004;-66
2021/10/11 05:27:22;;;;;;;13.50;7.30;;;;;;;18.27;33.57;101348.36;1688812;83;20994;-73
2021/10/11 05:29:49;;;;;;;14.20;6.90;;;;;;;18.43;33.49;101336.02;1683190;83;21171;-71
2021/10/11 05:32:15;;;;;;;14.00;7.70;;;;;;;18.50;33.33;101340.48;1685434;84;21142;-66
2021/10/11 05:34:41;;;;;;;17.70;7.25;;;;;;;18.57;33.26;101331.52;1682285;84;20994;-67
2021/10/11 05:37:08;;;;;;;12.05;7.83;;;;;;;18.57;33.27;101332.03;1687922;83;20885;-67
2021/10/11 05:39:35;;;;;;;11.68;6.70;;;;;;;18.68;33.14;101336.14;1678611;84;21066;-67
2021/10/11 05:42:01;;;;;;;14.23;6.58;;;;;;;18.86;32.98;101345.22;1691238;82;21168;-69
2021/10/11 05:44:28;;;;;;;16.70;7.10;;;;;;;18.80;33.23;101340.80;1688330;83;21460;-66
2021/10/11 05:46:55;;;;;;;14.50;7.45;;;;;;;19.00;33.01;101336.20;1683999;83;21006;-67
2021/10/11 05:49:22;;;;;;;17.65;7.55;;;;;;;19.19;32.93;101339.23;1691914;84;21112;-67
2021/10/11 05:51:49;;;;;;;15.43;7.53;;;;;;;19.27;32.62;101338.67;1679482;83;20948;-74
2021/10/11 05:54:15;;;;;;;15.18;7.30;;;;;;;19.54;32.01;101337.97;1687358;83;21197;-67
2021/10/11 05:56:42;;;;;;;13.80;6.70;;;;;;;19.75;31.75;101335.50;1686457;83;21038;-68
2021/10/11 05:59:08;;;;;;;15.38;8.53;;;;;;;19.88;31.54;101335.36;1685636;84;20955;-67
2021/10/11 06:01:35;;;;;;;15.63;7.60;;;;;;;19.82;31.46;101330.44;1681171;83;21537;-67
2021/10/11 06:04:01;;;;;;;16.10;8.20;;;;;;;19.75;31.60;101324.39;1724281;82;21909;-75
2021/10/11 06:06:28;;;;;;;13.43;7.77;;;;;;;19.90;31.38;101326.70;1728193;82;21575;-67
2021/10/11 06:08:55;;;;;;;14.53;7.17;;;;;;;19.98;31.40;101329.06;1720956;82;21418;-68
2021/10/11 06:11:22;;;;;;;16.45;7.90;;;;;;;20.19;30.94;101323.84;1728636;82;21739;-67
2021/10/11 06:13:48;;;;;;;15.20;8.10;;;;;;;20.22;30.80;101326.56;1717723;82;20996;-67
2021/10/11 06:16:16;;;;;;;14.10;7.67;;;;;;;20.12;31.03;101321.80;1711812;82;21241;-67
2021/10/11 06:18:43;;;;;;;11.53;7.40;;;;;;;20.23;31.11;101320.23;1719462;82;21138;-69
2021/10/11 06:21:09;;;;;;;13.60;7.30;;;;;;;20.31;30.84;101314.15;1723926;82;21078;-67
2021/10/11 06:23:36;;;;;;;12.83;6.63;;;;;;;20.15;31.07;101316.88;1722769;82;21302;-73
2021/10/11 06:26:02;;;;;;;11.87;6.80;;;;;;;20.23;31.01;101307.00;1709560;82;21299;-70
2021/10/11 06:28:29;;;;;;;13.80;7.47;;;;;;;20.27;30.95;101307.69;1725151;82;21684;-67
2021/10/11 06:30:57;;;;;;;14.67;6.67;;;;;;;20.38;30.93;101302.13;1720010;82;21238;-66
2021/10/11 06:33:24;;;;;;;33.60;22.13;;;;;;;20.39;30.99;101301.92;1725891;82;21287;-67
2021/10/11 06:35:51;;;;;;;16.07;8.97;;;;;;;20.44;31.13;101299.93;1717187;82;21209;-70
2021/10/11 06:38:17;;;;;;;17.97;11.77;;;;;;;19.93;31.49;101300.61;1712665;82;21195;-69
2021/10/11 06:40:46;;;;;;;17.57;10.60;;;;;;;20.23;31.31;101306.52;1729342;82;21306;-70
2021/10/11 06:43:12;;;;;;;13.63;8.20;;;;;;;20.38;31.11;101296.34;1720246;82;21528;-71
2021/10/11 06:45:39;;;;;;;14.03;7.47;;;;;;;20.42;30.84;101296.72;1717283;82;21589;-72
2021/10/11 06:48:05;;;;;;;18.93;9.37;;;;;;;20.18;31.05;101295.23;1724746;82;21395;-74
2021/10/11 06:50:32;;;;;;;14.47;8.20;;;;;;;20.31;31.00;101294.29;1725191;82;21215;-70
2021/10/11 06:52:58;;;;;;;13.30;7.77;;;;;;;20.31;31.03;101288.99;1726454;82;21151;-70
2021/10/11 06:55:25;;;;;;;15.57;7.37;;;;;;;20.26;31.21;101291.48;1722458;81;21935;-73
2021/10/11 06:57:52;;;;;;;11.80;6.47;;;;;;;19.97;31.83;101289.08;1710527;82;21229;-70
2021/10/11 07:00:18;;;;;;;14.03;7.67;;;;;;;20.35;31.12;101290.17;1717153;82;21257;-69
2021/10/11 07:02:44;;;;;;;16.17;7.37;;;;;;;20.40;31.16;101279.70;1718722;82;21367;-70
2021/10/11 07:05:11;;;;;;;10.00;6.23;;;;;;;20.38;31.24;101282.27;1714691;82;21839;-73
2021/10/11 07:07:41;;;;;;;12.57;6.90;;;;;;;20.38;31.28;101278.30;1718865;82;21340;-72
2021/10/11 07:10:09;;;;;;;9.28;6.60;;;;;;;20.70;30.89;101278.94;1693852;84;21224;-71
2021/10/11 07:12:36;;;;;;;13.73;8.50;;;;;;;20.68;30.82;101270.91;1720578;82;21023;-69
2021/10/11 07:15:04;;;;;;;14.50;8.73;;;;;;;20.77;30.70;101270.91;1721987;82;21665;-70
2021/10/11 07:17:32;;;;;;;14.50;8.77;;;;;;;20.91;30.77;101260.41;1727023;82;21810;-72
2021/10/11 07:19:58;;;;;;;12.83;8.57;;;;;;;20.93;30.79;101267.60;1712512;82;21756;-68
2021/10/11 07:22:25;;;;;;;12.03;7.80;;;;;;;21.08;30.61;101265.85;1724346;82;21136;-71
2021/10/11 07:24:51;;;;;;;12.87;7.57;;;;;;;21.16;30.43;101263.38;1726831;82;21338;-69
2021/10/11 07:27:18;;;;;;;11.60;7.60;;;;;;;21.38;29.93;101265.80;1727197;82;21581;-71
2021/10/11 07:29:45;;;;;;;11.83;7.47;;;;;;;21.41;30.04;101260.56;1718424;81;21379;-70
2021/10/11 07:32:11;;;;;;;16.80;7.00;;;;;;;21.38;30.01;101255.19;1709574;82;21299;-68
2021/10/11 07:34:38;;;;;;;12.73;7.20;;;;;;;21.35;30.23;101262.28;1719720;82;21770;-69
2021/10/11 07:37:04;;;;;;;9.77;6.63;;;;;;;21.48;29.86;101260.73;1720455;82;21116;-69
2021/10/11 07:39:32;;;;;;;12.33;6.83;;;;;;;21.67;29.71;101257.94;1721412;82;21247;-69
2021/10/11 07:42:00;;;;;;;10.83;7.03;;;;;;;21.94;29.26;101256.95;1718402;82;21388;-68
2021/10/11 07:44:27;;;;;;;12.03;7.37;;;;;;;22.01;29.23;101251.80;1721740;82;21897;-68
2021/10/11 07:46:54;;;;;;;13.93;7.57;;;;;;;22.09;29.63;101247.44;1718440;82;21368;-69
2021/10/11 07:49:21;;;;;;;12.27;6.03;;;;;;;22.09;29.63;101247.44;1717479;82;21408;-72
2021/10/11 07:51:48;;;;;;;11.93;6.37;;;;;;;22.21;28.93;101240.80;1723712;82;21457;-70
2021/10/11 07:54:18;;;;;;;9.90;6.20;;;;;;;22.21;28.93;101240.80;1724233;82;22042;-71
2021/10/11 07:56:44;;;;;;;8.47;6.17;;;;;;;22.27;29.26;101247.00;1725695;82;21402;-67
2021/10/11 07:59:11;;;;;;;10.67;6.23;;;;;;;22.55;28.94;101240.36;1722717;82;21868;-71
2021/10/11 08:01:38;;;;;;;14.97;6.10;;;;;;;22.63;28.27;101240.50;1728185;82;21340;-71
2021/10/11 08:04:04;;;;;;;12.73;6.50;;;;;;;22.55;29.17;101241.70;1716157;82;21339;-69
2021/10/11 08:06:33;;;;;;;13.00;6.70;;;;;;;22.55;29.17;101241.70;1723170;82;21493;-70
2021/10/11 08:08:59;;;;;;;15.33;7.20;;;;;;;22.69;28.50;101241.38;1704633;82;21233;-72
2021/10/11 08:11:25;;;;;;;12.30;7.33;;;;;;;22.54;28.98;101230.79;1727742;82;21316;-72
2021/10/11 08:13:52;;;;;;;13.33;7.17;;;;;;;22.54;28.98;101230.79;1727356;82;22491;-69
2021/10/11 08:16:19;;;;;;;10.10;6.13;;;;;;;22.56;28.85;101230.02;1723475;82;21541;-68
2021/10/11 08:18:46;;;;;;;13.30;6.60;;;;;;;22.65;28.61;101226.96;1724801;82;21826;-68
2021/10/11 08:21:12;;;;;;;11.43;6.90;;;;;;;22.61;28.59;101219.19;1691678;84;22267;-68
2021/10/11 08:23:42;;;;;;;9.77;6.50;;;;;;;22.61;28.59;101219.19;1681717;84;21537;-68
2021/10/11 08:26:09;;;;;;;11.03;6.30;;;;;;;22.74;28.74;101214.38;1710743;82;22067;-68
2021/10/11 08:28:37;;;;;;;14.00;6.57;;;;;;;22.85;28.68;101217.22;1686750;84;21791;-68
2021/10/11 08:31:04;;;;;;;9.00;5.80;;;;;;;22.93;28.66;101220.30;1691114;84;22122;-71
2021/10/11 08:33:31;;;;;;;10.60;6.40;;;;;;;23.08;28.44;101223.73;1686006;84;21672;-70
2021/10/11 08:35:57;;;;;;;11.07;6.40;;;;;;;23.12;28.65;101219.53;1690481;84;21685;-68
2021/10/11 08:38:24;;;;;;;11.10;6.27;;;;;;;23.13;28.57;101223.00;1687232;83;22462;-68
2021/10/11 08:40:50;;;;;;;10.53;6.63;;;;;;;23.28;28.24;101213.38;1693302;83;21816;-67
2021/10/11 08:43:17;;;;;;;12.47;8.23;;;;;;;23.28;28.24;101213.38;1689173;83;21910;-72
2021/10/11 08:45:46;;;;;;;11.40;6.97;;;;;;;23.40;27.88;101210.63;1679028;84;21762;-68
2021/10/11 08:48:12;;;;;;;13.63;8.00;;;;;;;23.22;28.13;101213.05;1690231;83;21702;-70
2021/10/11 08:50:38;;;;;;;11.77;7.63;;;;;;;23.18;28.52;101208.44;1683116;83;21588;-68
2021/10/11 08:53:06;;;;;;;12.43;7.03;;;;;;;23.34;28.12;101203.63;1691538;84;22055;-68
2021/10/11 08:55:33;;;;;;;11.13;6.70;;;;;;;23.47;27.85;101199.28;1688195;84;21808;-68
2021/10/11 08:58:03;;;;;;;11.37;6.83;;;;;;;23.56;27.79;101196.98;1667037;85;22933;-67
2021/10/11 09:00:34;;;;;;;11.03;7.07;;;;;;;23.44;27.71;101189.13;1692100;83;21748;-67
2021/10/11 09:03:01;;;;;;;10.53;6.53;;;;;;;23.59;27.65;101187.19;1723293;82;21461;-72
2021/10/11 09:05:34;;;;;;;11.60;7.17;;;;;;;23.69;27.45;101183.89;1728184;82;20997;-68
2021/10/11 09:08:06;;;;;;;11.90;5.90;;;;;;;23.69;27.45;101183.89;1712901;82;21691;-67
2021/10/11 09:10:59;;;;;;;12.60;6.13;;;;;;;24.09;26.88;101180.07;1724176;82;22037;-69
2021/10/11 09:13:43;;;;;;;10.47;6.13;;;;;;;24.25;26.82;101177.86;1718023;82;22764;-70
2021/10/11 09:16:32;;;;;;;10.07;5.47;;;;;;;24.46;25.90;101174.34;1717519;82;21771;-69
2021/10/11 09:19:25;;;;;;;9.63;5.70;;;;;;;24.46;25.90;101174.34;1723510;82;21631;-70
2021/10/11 09:21:48;;;;;;;8.83;5.60;;;;;;;24.74;26.21;101173.79;1718045;82;21589;-69
2021/10/11 09:24:20;;;;;;;8.63;5.67;;;;;;;24.89;25.55;101168.56;1724393;82;21660;-72
2021/10/11 09:26:55;;;;;;;9.73;5.63;;;;;;;25.04;25.04;101165.70;1727675;82;21722;-71
2021/10/11 09:29:35;;;;;;;10.50;5.37;;;;;;;25.00;24.93;101168.08;1708299;82;21035;-72
2021/10/11 09:32:07;;;;;;;11.27;5.63;;;;;;;25.09;24.62;101157.22;1711393;82;22424;-71
2021/10/11 09:34:40;;;;;;;12.13;6.00;;;;;;;25.09;24.56;101153.22;1717093;82;21097;-70
2021/10/11 09:37:09;;;;;;;11.03;5.62;;;;;;;25.11;24.58;101149.77;1709269;82;21816;-70
2021/10/11 09:39:38;;;;;;;9.30;5.60;;;;;;;24.65;25.03;101148.64;1727888;82;20931;-70
2021/10/11 09:42:07;;;;;;;10.20;5.80;;;;;;;24.49;25.14;101143.72;1728396;82;22045;-71
2021/10/11 09:44:35;;;;;;;9.53;5.33;;;;;;;24.67;24.92;101145.20;1725188;82;21078;-70
2021/10/11 09:47:08;;;;;;;8.03;5.17;;;;;;;24.70;25.02;101138.00;1714389;82;20956;-69
2021/10/11 09:49:33;;;;;;;7.93;4.73;;;;;;;24.62;24.93;101131.81;1724189;82;22470;-70
2021/10/11 09:52:00;;;;;;;7.83;5.10;;;;;;;24.75;24.53;101131.39;1713852;82;20948;-71
2021/10/11 09:54:26;;;;;;;8.53;5.73;;;;;;;24.68;24.44;101120.14;1726149;82;21015;-72
2021/10/11 09:56:53;;;;;;;10.97;5.93;;;;;;;24.01;25.30;101120.06;1714760;82;21671;-71
2021/10/11 09:59:20;;;;;;;10.60;5.67;;;;;;;24.01;25.30;101120.06;1722348;82;21041;-71
2021/10/11 10:01:47;;;;;;;12.30;5.50;;;;;;;24.04;25.28;101116.38;1727799;82;22401;-71
2021/10/11 10:04:23;;;;;;;11.27;5.67;;;;;;;24.02;25.17;101118.50;1727143;82;22456;-71
2021/10/11 10:06:49;;;;;;;12.23;5.13;;;;;;;23.93;25.39;101106.67;1719445;82;20968;-70
2021/10/11 10:09:17;;;;;;;7.23;5.10;;;;;;;23.97;25.26;101106.98;1725835;82;20943;-69
2021/10/11 10:11:45;;;;;;;7.63;4.77;;;;;;;24.11;25.17;101109.52;1724683;82;20959;-67
2021/10/11 10:14:40;;;;;;;8.93;5.00;;;;;;;24.29;25.03;101099.03;1719532;82;21091;-65
2021/10/11 10:17:06;;;;;;;8.33;4.90;;;;;;;24.38;25.07;101093.49;1727857;82;21158;-66
2021/10/11 10:19:34;;;;;;;8.83;5.03;;;;;;;24.47;25.03;101088.02;1710854;82;21689;-68
2021/10/11 10:22:16;;;;;;;9.20;5.40;;;;;;;24.30;25.10;101091.84;1723709;82;22244;-66
2021/10/11 10:24:43;;;;;;;10.50;5.73;;;;;;;24.30;25.22;101078.52;1726054;81;20991;-67
2021/10/11 10:27:13;;;;;;;9.73;5.53;;;;;;;24.19;24.95;101069.62;1729584;82;22017;-66
2021/10/11 10:29:42;;;;;;;10.27;4.57;;;;;;;24.19;24.95;101069.62;1721837;82;20928;-64
2021/10/11 10:32:09;;;;;;;9.93;5.03;;;;;;;24.28;24.97;101072.09;1730290;82;21649;-66
2021/10/11 10:34:36;;;;;;;7.43;4.50;;;;;;;24.36;24.61;101068.16;1729617;82;20999;-66
2021/10/11 10:37:08;;;;;;;10.43;5.07;;;;;;;24.36;24.61;101068.16;1730213;82;21561;-66
2021/10/11 10:39:39;;;;;;;7.87;4.87;;;;;;;24.34;24.69;101057.76;1711427;82;21101;-66
2021/10/11 10:42:07;;;;;;;8.17;5.33;;;;;;;24.30;24.70;101059.33;1725355;82;21016;-68
2021/10/11 10:44:44;;;;;;;6.60;4.60;;;;;;;24.28;24.76;101066.25;1729307;82;20944;-65
2021/10/11 10:47:12;;;;;;;8.77;5.57;;;;;;;24.22;24.79;101055.27;1730079;82;21020;-70
2021/10/11 10:49:47;;;;;;;10.40;5.27;;;;;;;24.23;24.91;101054.20;1719501;82;21480;-65
2021/10/11 10:52:20;;;;;;;8.50;4.77;;;;;;;24.31;24.45;101043.61;1728991;82;21134;-66
2021/10/11 10:54:49;;;;;;;12.30;4.97;;;;;;;24.19;24.48;101045.66;1731487;82;21047;-65
2021/10/11 10:57:23;;;;;;;10.70;6.00;;;;;;;24.19;24.45;101046.45;1728476;82;20995;-66
2021/10/11 10:59:54;;;;;;;8.17;4.80;;;;;;;24.15;24.65;101047.22;1728986;82;21009;-68
2021/10/11 11:02:21;;;;;;;10.32;5.45;;;;;;;24.13;24.49;101046.16;1728831;82;21770;-68
2021/10/11 11:04:57;;;;;;;8.60;4.50;;;;;;;24.23;24.34;101042.22;1731337;82;21196;-69
2021/10/11 11:07:31;;;;;;;9.03;4.80;;;;;;;24.10;24.32;101043.98;1727596;82;21011;-69
2021/10/11 11:10:00;;;;;;;7.80;5.40;;;;;;;24.01;24.52;101030.31;1730105;82;21129;-68
2021/10/11 11:12:30;;;;;;;8.10;5.13;;;;;;;24.05;24.79;101025.28;1729141;82;22248;-70
2021/10/11 11:14:57;;;;;;;8.33;5.33;;;;;;;24.06;24.84;101022.92;1730611;82;21608;-67
2021/10/11 11:17:34;;;;;;;8.67;5.70;;;;;;;24.05;24.96;101023.95;1712435;83;21741;-69
2021/10/11 11:20:03;;;;;;;8.07;5.10;;;;;;;24.00;25.04;101019.92;1722803;82;21071;-67
2021/10/11 11:22:32;;;;;;;7.23;5.17;;;;;;;24.04;24.92;101009.03;1722835;82;21497;-71
2021/10/11 11:25:04;;;;;;;7.70;5.60;;;;;;;24.10;24.66;101019.22;1723684;82;21478;-68